sensor_id;sensor_type;location;lat;lon;timestamp;P1;durP1;ratioP1;P2;durP2;ratioP2
4738;SDS011;2383;48.632;10.156;2023-09-18T00:00:34;5.82;;;4.07;;
4738;SDS011;2383;48.632;10.156;2023-09-18T00:04:36;5.15;;;4.00;;
4738;SDS011;2383;48.632;10.156;2023-09-18T00:08:38;4.07;;;3.67;;
4738;SDS011;2383;48.632;10.156;2023-09-18T00:12:41;3.80;;;3.50;;
4738;SDS011;2383;48.632;10.156;2023-09-18T00:16:43;4.10;;;3.70;;
4738;SDS011;2383;48.632;10.156;2023-09-18T00:20:59;3.63;;;3.30;;
4738;SDS011;2383;48.632;10.156;2023-09-18T00:25:01;6.03;;;4.22;;
4738;SDS011;2383;48.632;10.156;2023-09-18T00:29:03;5.53;;;3.72;;
4738;SDS011;2383;48.632;10.156;2023-09-18T00:33:05;5.95;;;3.92;;
4738;SDS011;2383;48.632;10.156;2023-09-18T00:37:07;4.10;;;3.70;;
4738;SDS011;2383;48.632;10.156;2023-09-18T00:41:12;5.30;;;3.70;;
4738;SDS011;2383;48.632;10.156;2023-09-18T00:45:14;5.53;;;3.42;;
4738;SDS011;2383;48.632;10.156;2023-09-18T00:49:17;4.95;;;4.25;;
4738;SDS011;2383;48.632;10.156;2023-09-18T00:53:21;4.25;;;3.80;;
4738;SDS011;2383;48.632;10.156;2023-09-18T00:57:24;4.30;;;3.90;;
4738;SDS011;2383;48.632;10.156;2023-09-18T01:01:26;4.75;;;4.22;;
4738;SDS011;2383;48.632;10.156;2023-09-18T01:05:31;5.40;;;3.72;;
4738;SDS011;2383;48.632;10.156;2023-09-18T01:09:37;5.50;;;4.18;;
4738;SDS011;2383;48.632;10.156;2023-09-18T01:13:59;4.45;;;3.83;;
4738;SDS011;2383;48.632;10.156;2023-09-18T01:18:09;6.25;;;4.75;;
4738;SDS011;2383;48.632;10.156;2023-09-18T01:22:13;6.78;;;4.40;;
4738;SDS011;2383;48.632;10.156;2023-09-18T01:26:16;6.43;;;4.32;;
4738;SDS011;2383;48.632;10.156;2023-09-18T01:30:18;6.07;;;4.18;;
4738;SDS011;2383;48.632;10.156;2023-09-18T01:34:21;4.00;;;3.60;;
4738;SDS011;2383;48.632;10.156;2023-09-18T01:38:30;5.78;;;3.95;;
4738;SDS011;2383;48.632;10.156;2023-09-18T01:42:32;4.38;;;3.97;;
4738;SDS011;2383;48.632;10.156;2023-09-18T01:46:36;5.00;;;4.07;;
4738;SDS011;2383;48.632;10.156;2023-09-18T01:50:40;6.35;;;4.50;;
4738;SDS011;2383;48.632;10.156;2023-09-18T01:54:43;6.30;;;4.30;;
4738;SDS011;2383;48.632;10.156;2023-09-18T01:58:45;4.25;;;3.83;;
4738;SDS011;2383;48.632;10.156;2023-09-18T02:02:48;5.00;;;3.92;;
4738;SDS011;2383;48.632;10.156;2023-09-18T02:07:09;6.95;;;4.70;;
4738;SDS011;2383;48.632;10.156;2023-09-18T02:11:12;4.82;;;4.32;;
4738;SDS011;2383;48.632;10.156;2023-09-18T02:15:14;4.82;;;4.18;;
4738;SDS011;2383;48.632;10.156;2023-09-18T02:19:18;5.80;;;4.60;;
4738;SDS011;2383;48.632;10.156;2023-09-18T02:23:21;5.70;;;4.70;;
4738;SDS011;2383;48.632;10.156;2023-09-18T02:27:24;7.05;;;4.40;;
4738;SDS011;2383;48.632;10.156;2023-09-18T02:31:26;5.18;;;4.68;;
4738;SDS011;2383;48.632;10.156;2023-09-18T02:35:29;6.65;;;4.93;;
4738;SDS011;2383;48.632;10.156;2023-09-18T02:39:31;7.85;;;5.28;;
4738;SDS011;2383;48.632;10.156;2023-09-18T02:43:34;6.50;;;4.97;;
4738;SDS011;2383;48.632;10.156;2023-09-18T02:47:37;8.60;;;4.80;;
4738;SDS011;2383;48.632;10.156;2023-09-18T02:51:42;7.03;;;4.75;;
4738;SDS011;2383;48.632;10.156;2023-09-18T02:55:46;7.22;;;5.13;;
4738;SDS011;2383;48.632;10.156;2023-09-18T02:59:49;6.40;;;4.80;;
4738;SDS011;2383;48.632;10.156;2023-09-18T03:03:51;8.43;;;5.07;;
4738;SDS011;2383;48.632;10.156;2023-09-18T03:07:53;7.43;;;4.63;;
4738;SDS011;2383;48.632;10.156;2023-09-18T03:11:55;5.55;;;4.70;;
4738;SDS011;2383;48.632;10.156;2023-09-18T03:15:59;7.05;;;4.55;;
4738;SDS011;2383;48.632;10.156;2023-09-18T03:20:02;7.20;;;4.95;;
4738;SDS011;2383;48.632;10.156;2023-09-18T03:24:04;8.00;;;5.25;;
4738;SDS011;2383;48.632;10.156;2023-09-18T03:28:06;9.85;;;5.03;;
4738;SDS011;2383;48.632;10.156;2023-09-18T03:32:09;5.97;;;5.20;;
4738;SDS011;2383;48.632;10.156;2023-09-18T03:36:14;5.47;;;4.85;;
4738;SDS011;2383;48.632;10.156;2023-09-18T03:40:17;6.32;;;5.32;;
4738;SDS011;2383;48.632;10.156;2023-09-18T03:44:19;7.18;;;5.40;;
4738;SDS011;2383;48.632;10.156;2023-09-18T03:48:23;7.95;;;5.60;;
4738;SDS011;2383;48.632;10.156;2023-09-18T03:52:25;6.32;;;5.10;;
4738;SDS011;2383;48.632;10.156;2023-09-18T03:56:27;7.43;;;5.10;;
4738;SDS011;2383;48.632;10.156;2023-09-18T04:00:29;8.20;;;5.60;;
4738;SDS011;2383;48.632;10.156;2023-09-18T04:04:31;6.80;;;5.55;;
4738;SDS011;2383;48.632;10.156;2023-09-18T04:08:33;8.80;;;5.55;;
4738;SDS011;2383;48.632;10.156;2023-09-18T04:12:35;5.65;;;5.13;;
4738;SDS011;2383;48.632;10.156;2023-09-18T04:16:38;8.55;;;5.55;;
4738;SDS011;2383;48.632;10.156;2023-09-18T04:20:43;6.68;;;5.50;;
4738;SDS011;2383;48.632;10.156;2023-09-18T04:24:44;7.40;;;5.43;;
4738;SDS011;2383;48.632;10.156;2023-09-18T04:28:47;5.97;;;5.38;;
4738;SDS011;2383;48.632;10.156;2023-09-18T04:32:49;7.55;;;5.97;;
4738;SDS011;2383;48.632;10.156;2023-09-18T04:36:54;9.18;;;6.03;;
4738;SDS011;2383;48.632;10.156;2023-09-18T04:40:59;6.03;;;5.30;;
4738;SDS011;2383;48.632;10.156;2023-09-18T04:45:03;6.07;;;5.30;;
4738;SDS011;2383;48.632;10.156;2023-09-18T04:49:07;7.55;;;6.05;;
4738;SDS011;2383;48.632;10.156;2023-09-18T04:53:12;8.40;;;5.97;;
4738;SDS011;2383;48.632;10.156;2023-09-18T04:57:15;8.77;;;5.40;;
4738;SDS011;2383;48.632;10.156;2023-09-18T05:01:20;8.85;;;6.47;;
4738;SDS011;2383;48.632;10.156;2023-09-18T05:05:23;9.02;;;5.82;;
4738;SDS011;2383;48.632;10.156;2023-09-18T05:09:25;10.02;;;5.78;;
4738;SDS011;2383;48.632;10.156;2023-09-18T05:13:28;12.98;;;6.25;;
4738;SDS011;2383;48.632;10.156;2023-09-18T05:17:40;7.07;;;5.68;;
4738;SDS011;2383;48.632;10.156;2023-09-18T05:21:44;6.72;;;5.63;;
4738;SDS011;2383;48.632;10.156;2023-09-18T05:25:47;7.53;;;5.78;;
4738;SDS011;2383;48.632;10.156;2023-09-18T05:29:50;6.35;;;5.70;;
4738;SDS011;2383;48.632;10.156;2023-09-18T05:33:51;9.13;;;6.88;;
4738;SDS011;2383;48.632;10.156;2023-09-18T05:37:53;9.13;;;6.90;;
4738;SDS011;2383;48.632;10.156;2023-09-18T05:41:58;7.50;;;6.47;;
4738;SDS011;2383;48.632;10.156;2023-09-18T05:46:00;11.00;;;7.15;;
4738;SDS011;2383;48.632;10.156;2023-09-18T05:50:03;7.13;;;6.43;;
4738;SDS011;2383;48.632;10.156;2023-09-18T05:54:16;7.40;;;6.50;;
4738;SDS011;2383;48.632;10.156;2023-09-18T05:58:18;11.05;;;6.88;;
4738;SDS011;2383;48.632;10.156;2023-09-18T06:02:23;7.53;;;6.75;;
4738;SDS011;2383;48.632;10.156;2023-09-18T06:06:28;8.68;;;7.50;;
4738;SDS011;2383;48.632;10.156;2023-09-18T06:10:30;8.98;;;6.75;;
4738;SDS011;2383;48.632;10.156;2023-09-18T06:14:32;8.30;;;6.90;;
4738;SDS011;2383;48.632;10.156;2023-09-18T06:18:39;7.55;;;6.82;;
4738;SDS011;2383;48.632;10.156;2023-09-18T06:22:41;8.27;;;7.30;;
4738;SDS011;2383;48.632;10.156;2023-09-18T06:26:43;11.18;;;6.97;;
4738;SDS011;2383;48.632;10.156;2023-09-18T06:30:45;13.75;;;7.55;;
4738;SDS011;2383;48.632;10.156;2023-09-18T06:34:47;10.10;;;8.27;;
4738;SDS011;2383;48.632;10.156;2023-09-18T06:38:49;9.73;;;7.72;;
4738;SDS011;2383;48.632;10.156;2023-09-18T06:42:57;10.13;;;7.65;;
4738;SDS011;2383;48.632;10.156;2023-09-18T06:47:01;10.95;;;8.15;;
4738;SDS011;2383;48.632;10.156;2023-09-18T06:51:03;16.65;;;7.30;;
4738;SDS011;2383;48.632;10.156;2023-09-18T06:55:05;9.48;;;7.35;;
4738;SDS011;2383;48.632;10.156;2023-09-18T06:59:07;11.15;;;7.50;;
4738;SDS011;2383;48.632;10.156;2023-09-18T07:03:10;11.18;;;7.35;;
4738;SDS011;2383;48.632;10.156;2023-09-18T07:07:13;8.95;;;7.30;;
4738;SDS011;2383;48.632;10.156;2023-09-18T07:11:16;8.27;;;7.47;;
4738;SDS011;2383;48.632;10.156;2023-09-18T07:15:18;10.02;;;9.02;;
4738;SDS011;2383;48.632;10.156;2023-09-18T07:19:20;12.18;;;8.88;;
4738;SDS011;2383;48.632;10.156;2023-09-18T07:23:22;10.45;;;8.77;;
4738;SDS011;2383;48.632;10.156;2023-09-18T07:27:24;9.77;;;8.25;;
4738;SDS011;2383;48.632;10.156;2023-09-18T07:31:26;10.60;;;8.32;;
4738;SDS011;2383;48.632;10.156;2023-09-18T07:35:29;11.15;;;8.00;;
4738;SDS011;2383;48.632;10.156;2023-09-18T07:39:31;9.70;;;8.63;;
4738;SDS011;2383;48.632;10.156;2023-09-18T07:43:34;10.85;;;7.65;;
4738;SDS011;2383;48.632;10.156;2023-09-18T07:47:35;10.45;;;7.32;;
4738;SDS011;2383;48.632;10.156;2023-09-18T07:51:38;9.63;;;6.47;;
4738;SDS011;2383;48.632;10.156;2023-09-18T07:55:40;9.20;;;6.38;;
4738;SDS011;2383;48.632;10.156;2023-09-18T07:59:42;7.10;;;5.57;;
4738;SDS011;2383;48.632;10.156;2023-09-18T08:03:44;12.05;;;5.35;;
4738;SDS011;2383;48.632;10.156;2023-09-18T08:07:46;9.55;;;6.15;;
4738;SDS011;2383;48.632;10.156;2023-09-18T08:11:49;6.95;;;5.88;;
4738;SDS011;2383;48.632;10.156;2023-09-18T08:15:51;6.03;;;4.93;;
4738;SDS011;2383;48.632;10.156;2023-09-18T08:19:54;14.90;;;6.13;;
4738;SDS011;2383;48.632;10.156;2023-09-18T08:23:57;11.45;;;6.10;;
4738;SDS011;2383;48.632;10.156;2023-09-18T08:27:58;8.55;;;6.00;;
4738;SDS011;2383;48.632;10.156;2023-09-18T08:32:00;11.07;;;5.68;;
4738;SDS011;2383;48.632;10.156;2023-09-18T08:36:03;10.00;;;6.22;;
4738;SDS011;2383;48.632;10.156;2023-09-18T08:40:05;9.60;;;6.38;;
4738;SDS011;2383;48.632;10.156;2023-09-18T08:44:11;11.35;;;6.07;;
4738;SDS011;2383;48.632;10.156;2023-09-18T08:48:15;9.82;;;5.80;;
4738;SDS011;2383;48.632;10.156;2023-09-18T08:52:17;10.80;;;5.32;;
4738;SDS011;2383;48.632;10.156;2023-09-18T08:56:20;11.35;;;5.88;;
4738;SDS011;2383;48.632;10.156;2023-09-18T09:00:23;8.50;;;4.40;;
4738;SDS011;2383;48.632;10.156;2023-09-18T09:04:25;10.55;;;4.35;;
4738;SDS011;2383;48.632;10.156;2023-09-18T09:08:28;14.55;;;4.22;;
4738;SDS011;2383;48.632;10.156;2023-09-18T09:16:57;13.57;;;4.20;;
4738;SDS011;2383;48.632;10.156;2023-09-18T09:21:00;9.15;;;3.67;;
4738;SDS011;2383;48.632;10.156;2023-09-18T09:29:23;6.40;;;2.22;;
4738;SDS011;2383;48.632;10.156;2023-09-18T09:33:25;3.40;;;1.30;;
4738;SDS011;2383;48.632;10.156;2023-09-18T09:37:29;9.23;;;1.63;;
4738;SDS011;2383;48.632;10.156;2023-09-18T09:41:32;4.30;;;1.20;;
4738;SDS011;2383;48.632;10.156;2023-09-18T09:45:35;5.63;;;1.50;;
4738;SDS011;2383;48.632;10.156;2023-09-18T09:49:47;3.55;;;1.25;;
4738;SDS011;2383;48.632;10.156;2023-09-18T09:53:49;4.95;;;1.42;;
4738;SDS011;2383;48.632;10.156;2023-09-18T09:57:54;4.07;;;1.20;;
4738;SDS011;2383;48.632;10.156;2023-09-18T10:02:03;4.72;;;1.40;;
4738;SDS011;2383;48.632;10.156;2023-09-18T10:06:05;2.38;;;1.35;;
4738;SDS011;2383;48.632;10.156;2023-09-18T10:10:09;3.67;;;1.35;;
4738;SDS011;2383;48.632;10.156;2023-09-18T10:14:32;7.10;;;1.20;;
4738;SDS011;2383;48.632;10.156;2023-09-18T10:19:02;2.67;;;1.10;;
4738;SDS011;2383;48.632;10.156;2023-09-18T10:23:12;4.63;;;1.40;;
4738;SDS011;2383;48.632;10.156;2023-09-18T10:27:26;3.38;;;1.40;;
4738;SDS011;2383;48.632;10.156;2023-09-18T10:31:30;5.32;;;1.27;;
4738;SDS011;2383;48.632;10.156;2023-09-18T10:35:36;4.88;;;1.02;;
4738;SDS011;2383;48.632;10.156;2023-09-18T10:39:39;3.53;;;1.38;;
4738;SDS011;2383;48.632;10.156;2023-09-18T10:43:44;4.80;;;1.58;;
4738;SDS011;2383;48.632;10.156;2023-09-18T10:47:48;4.10;;;1.23;;
4738;SDS011;2383;48.632;10.156;2023-09-18T10:51:54;5.95;;;1.35;;
4738;SDS011;2383;48.632;10.156;2023-09-18T10:55:57;1.48;;;1.08;;
4738;SDS011;2383;48.632;10.156;2023-09-18T10:59:59;4.53;;;1.40;;
4738;SDS011;2383;48.632;10.156;2023-09-18T11:04:05;1.58;;;0.93;;
4738;SDS011;2383;48.632;10.156;2023-09-18T11:12:43;1.75;;;1.10;;
4738;SDS011;2383;48.632;10.156;2023-09-18T11:16:47;4.05;;;1.52;;
4738;SDS011;2383;48.632;10.156;2023-09-18T11:21:07;2.58;;;0.95;;
4738;SDS011;2383;48.632;10.156;2023-09-18T11:25:28;3.80;;;0.73;;
4738;SDS011;2383;48.632;10.156;2023-09-18T11:29:36;2.95;;;1.00;;
4738;SDS011;2383;48.632;10.156;2023-09-18T11:33:39;1.98;;;1.08;;
4738;SDS011;2383;48.632;10.156;2023-09-18T11:37:43;1.85;;;1.00;;
4738;SDS011;2383;48.632;10.156;2023-09-18T11:41:44;4.03;;;1.50;;
4738;SDS011;2383;48.632;10.156;2023-09-18T11:45:51;6.53;;;1.67;;
4738;SDS011;2383;48.632;10.156;2023-09-18T11:49:58;1.95;;;1.00;;
4738;SDS011;2383;48.632;10.156;2023-09-18T11:54:01;4.28;;;1.35;;
4738;SDS011;2383;48.632;10.156;2023-09-18T11:58:05;3.28;;;1.10;;
4738;SDS011;2383;48.632;10.156;2023-09-18T12:02:08;1.88;;;1.10;;
4738;SDS011;2383;48.632;10.156;2023-09-18T12:06:11;8.40;;;1.85;;
4738;SDS011;2383;48.632;10.156;2023-09-18T12:10:17;5.22;;;1.23;;
4738;SDS011;2383;48.632;10.156;2023-09-18T12:14:22;4.97;;;1.80;;
4738;SDS011;2383;48.632;10.156;2023-09-18T12:18:25;5.70;;;1.55;;
4738;SDS011;2383;48.632;10.156;2023-09-18T12:22:31;3.45;;;1.80;;
4738;SDS011;2383;48.632;10.156;2023-09-18T12:26:35;4.65;;;1.70;;
4738;SDS011;2383;48.632;10.156;2023-09-18T12:30:37;5.72;;;1.90;;
4738;SDS011;2383;48.632;10.156;2023-09-18T12:34:40;4.70;;;1.95;;
4738;SDS011;2383;48.632;10.156;2023-09-18T12:38:43;6.97;;;2.22;;
4738;SDS011;2383;48.632;10.156;2023-09-18T12:42:46;4.13;;;1.90;;
4738;SDS011;2383;48.632;10.156;2023-09-18T12:46:48;5.57;;;2.03;;
4738;SDS011;2383;48.632;10.156;2023-09-18T12:50:53;4.78;;;2.05;;
4738;SDS011;2383;48.632;10.156;2023-09-18T12:54:55;3.75;;;1.63;;
4738;SDS011;2383;48.632;10.156;2023-09-18T12:58:59;5.45;;;1.95;;
4738;SDS011;2383;48.632;10.156;2023-09-18T13:03:13;5.65;;;2.35;;
4738;SDS011;2383;48.632;10.156;2023-09-18T13:07:16;4.70;;;2.03;;
4738;SDS011;2383;48.632;10.156;2023-09-18T13:11:18;4.30;;;1.77;;
4738;SDS011;2383;48.632;10.156;2023-09-18T13:15:30;4.72;;;1.92;;
4738;SDS011;2383;48.632;10.156;2023-09-18T13:19:33;3.00;;;1.70;;
4738;SDS011;2383;48.632;10.156;2023-09-18T13:23:35;3.78;;;1.63;;
4738;SDS011;2383;48.632;10.156;2023-09-18T13:27:38;4.10;;;1.90;;
4738;SDS011;2383;48.632;10.156;2023-09-18T13:31:40;4.00;;;1.80;;
4738;SDS011;2383;48.632;10.156;2023-09-18T13:35:43;3.08;;;1.70;;
4738;SDS011;2383;48.632;10.156;2023-09-18T13:39:45;2.78;;;1.92;;
4738;SDS011;2383;48.632;10.156;2023-09-18T13:43:48;4.78;;;1.88;;
4738;SDS011;2383;48.632;10.156;2023-09-18T13:47:50;3.95;;;1.83;;
4738;SDS011;2383;48.632;10.156;2023-09-18T13:51:53;5.10;;;2.17;;
4738;SDS011;2383;48.632;10.156;2023-09-18T13:55:55;4.28;;;1.98;;
4738;SDS011;2383;48.632;10.156;2023-09-18T13:59:59;2.13;;;1.92;;
4738;SDS011;2383;48.632;10.156;2023-09-18T14:04:12;8.70;;;2.17;;
4738;SDS011;2383;48.632;10.156;2023-09-18T14:08:14;2.95;;;1.67;;
4738;SDS011;2383;48.632;10.156;2023-09-18T14:12:18;3.50;;;1.83;;
4738;SDS011;2383;48.632;10.156;2023-09-18T14:16:19;6.15;;;2.17;;
4738;SDS011;2383;48.632;10.156;2023-09-18T14:20:21;7.65;;;2.05;;
4738;SDS011;2383;48.632;10.156;2023-09-18T14:24:23;10.57;;;1.88;;
4738;SDS011;2383;48.632;10.156;2023-09-18T14:28:27;3.53;;;1.80;;
4738;SDS011;2383;48.632;10.156;2023-09-18T14:32:29;5.20;;;2.00;;
4738;SDS011;2383;48.632;10.156;2023-09-18T14:36:31;5.72;;;1.70;;
4738;SDS011;2383;48.632;10.156;2023-09-18T14:40:36;4.32;;;2.25;;
4738;SDS011;2383;48.632;10.156;2023-09-18T14:44:38;4.30;;;1.95;;
4738;SDS011;2383;48.632;10.156;2023-09-18T14:48:46;3.35;;;2.10;;
4738;SDS011;2383;48.632;10.156;2023-09-18T14:52:48;5.00;;;2.10;;
4738;SDS011;2383;48.632;10.156;2023-09-18T14:56:50;4.03;;;1.95;;
4738;SDS011;2383;48.632;10.156;2023-09-18T15:00:53;4.32;;;1.90;;
4738;SDS011;2383;48.632;10.156;2023-09-18T15:04:55;4.85;;;1.95;;
4738;SDS011;2383;48.632;10.156;2023-09-18T15:08:57;4.80;;;2.03;;
4738;SDS011;2383;48.632;10.156;2023-09-18T15:12:59;4.43;;;2.00;;
4738;SDS011;2383;48.632;10.156;2023-09-18T15:17:01;3.88;;;2.10;;
4738;SDS011;2383;48.632;10.156;2023-09-18T15:21:03;4.10;;;2.05;;
4738;SDS011;2383;48.632;10.156;2023-09-18T15:25:05;6.10;;;2.17;;
4738;SDS011;2383;48.632;10.156;2023-09-18T15:29:07;5.75;;;2.30;;
4738;SDS011;2383;48.632;10.156;2023-09-18T15:33:10;3.83;;;2.08;;
4738;SDS011;2383;48.632;10.156;2023-09-18T15:37:13;4.45;;;2.40;;
4738;SDS011;2383;48.632;10.156;2023-09-18T15:41:36;4.47;;;2.45;;
4738;SDS011;2383;48.632;10.156;2023-09-18T15:45:40;3.58;;;2.03;;
4738;SDS011;2383;48.632;10.156;2023-09-18T15:49:42;3.38;;;2.30;;
4738;SDS011;2383;48.632;10.156;2023-09-18T15:53:44;5.65;;;2.10;;
4738;SDS011;2383;48.632;10.156;2023-09-18T15:57:46;3.00;;;2.10;;
4738;SDS011;2383;48.632;10.156;2023-09-18T16:01:49;5.13;;;2.30;;
4738;SDS011;2383;48.632;10.156;2023-09-18T16:05:51;3.58;;;1.90;;
4738;SDS011;2383;48.632;10.156;2023-09-18T16:09:55;4.53;;;1.70;;
4738;SDS011;2383;48.632;10.156;2023-09-18T16:13:57;2.75;;;1.75;;
4738;SDS011;2383;48.632;10.156;2023-09-18T16:17:59;2.17;;;1.77;;
4738;SDS011;2383;48.632;10.156;2023-09-18T16:22:01;3.65;;;1.98;;
4738;SDS011;2383;48.632;10.156;2023-09-18T16:26:05;3.35;;;1.77;;
4738;SDS011;2383;48.632;10.156;2023-09-18T16:30:09;3.45;;;1.88;;
4738;SDS011;2383;48.632;10.156;2023-09-18T16:34:12;2.83;;;2.00;;
4738;SDS011;2383;48.632;10.156;2023-09-18T16:38:13;5.43;;;1.83;;
4738;SDS011;2383;48.632;10.156;2023-09-18T16:42:16;3.03;;;2.20;;
4738;SDS011;2383;48.632;10.156;2023-09-18T16:46:18;4.85;;;2.22;;
4738;SDS011;2383;48.632;10.156;2023-09-18T16:50:23;4.40;;;2.20;;
4738;SDS011;2383;48.632;10.156;2023-09-18T16:54:25;8.13;;;2.20;;
4738;SDS011;2383;48.632;10.156;2023-09-18T16:58:27;3.42;;;2.28;;
4738;SDS011;2383;48.632;10.156;2023-09-18T17:02:29;2.42;;;2.17;;
4738;SDS011;2383;48.632;10.156;2023-09-18T17:06:31;3.33;;;1.90;;
4738;SDS011;2383;48.632;10.156;2023-09-18T17:10:36;6.07;;;2.33;;
4738;SDS011;2383;48.632;10.156;2023-09-18T17:14:38;4.10;;;3.10;;
4738;SDS011;2383;48.632;10.156;2023-09-18T17:18:40;3.30;;;3.00;;
4738;SDS011;2383;48.632;10.156;2023-09-18T17:22:44;6.60;;;2.90;;
4738;SDS011;2383;48.632;10.156;2023-09-18T17:26:45;3.47;;;2.30;;
4738;SDS011;2383;48.632;10.156;2023-09-18T17:30:48;6.55;;;2.83;;
4738;SDS011;2383;48.632;10.156;2023-09-18T17:34:51;5.53;;;2.38;;
4738;SDS011;2383;48.632;10.156;2023-09-18T17:38:54;4.90;;;2.67;;
4738;SDS011;2383;48.632;10.156;2023-09-18T17:42:56;3.58;;;2.35;;
4738;SDS011;2383;48.632;10.156;2023-09-18T17:46:59;3.15;;;2.72;;
4738;SDS011;2383;48.632;10.156;2023-09-18T17:51:01;8.10;;;7.20;;
4738;SDS011;2383;48.632;10.156;2023-09-18T17:55:05;8.98;;;6.63;;
4738;SDS011;2383;48.632;10.156;2023-09-18T17:59:09;6.25;;;3.47;;
4738;SDS011;2383;48.632;10.156;2023-09-18T18:03:14;4.45;;;3.55;;
4738;SDS011;2383;48.632;10.156;2023-09-18T18:07:17;3.90;;;3.08;;
4738;SDS011;2383;48.632;10.156;2023-09-18T18:11:19;5.30;;;2.80;;
4738;SDS011;2383;48.632;10.156;2023-09-18T18:15:22;10.20;;;3.08;;
4738;SDS011;2383;48.632;10.156;2023-09-18T18:19:24;9.05;;;4.60;;
4738;SDS011;2383;48.632;10.156;2023-09-18T18:23:26;5.75;;;2.90;;
4738;SDS011;2383;48.632;10.156;2023-09-18T18:27:29;7.55;;;3.30;;
4738;SDS011;2383;48.632;10.156;2023-09-18T18:31:32;3.28;;;2.67;;
4738;SDS011;2383;48.632;10.156;2023-09-18T18:35:37;4.68;;;3.03;;
4738;SDS011;2383;48.632;10.156;2023-09-18T18:39:40;5.15;;;2.83;;
4738;SDS011;2383;48.632;10.156;2023-09-18T18:43:42;4.80;;;2.40;;
4738;SDS011;2383;48.632;10.156;2023-09-18T18:47:44;7.00;;;2.92;;
4738;SDS011;2383;48.632;10.156;2023-09-18T18:51:48;4.43;;;2.80;;
4738;SDS011;2383;48.632;10.156;2023-09-18T18:55:50;4.72;;;2.40;;
4738;SDS011;2383;48.632;10.156;2023-09-18T18:59:52;5.20;;;2.80;;
4738;SDS011;2383;48.632;10.156;2023-09-18T19:03:54;5.10;;;3.08;;
4738;SDS011;2383;48.632;10.156;2023-09-18T19:07:57;7.07;;;2.80;;
4738;SDS011;2383;48.632;10.156;2023-09-18T19:11:59;4.45;;;2.60;;
4738;SDS011;2383;48.632;10.156;2023-09-18T19:16:01;5.55;;;2.70;;
4738;SDS011;2383;48.632;10.156;2023-09-18T19:20:05;4.63;;;2.55;;
4738;SDS011;2383;48.632;10.156;2023-09-18T19:24:09;3.63;;;2.63;;
4738;SDS011;2383;48.632;10.156;2023-09-18T19:28:12;4.47;;;2.70;;
4738;SDS011;2383;48.632;10.156;2023-09-18T19:32:15;6.47;;;2.95;;
4738;SDS011;2383;48.632;10.156;2023-09-18T19:36:18;5.55;;;2.80;;
4738;SDS011;2383;48.632;10.156;2023-09-18T19:40:20;5.95;;;3.35;;
4738;SDS011;2383;48.632;10.156;2023-09-18T19:44:22;6.80;;;3.25;;
4738;SDS011;2383;48.632;10.156;2023-09-18T19:48:26;5.50;;;3.00;;
4738;SDS011;2383;48.632;10.156;2023-09-18T19:52:30;5.22;;;2.65;;
4738;SDS011;2383;48.632;10.156;2023-09-18T19:56:35;4.53;;;2.67;;
4738;SDS011;2383;48.632;10.156;2023-09-18T20:00:38;6.90;;;3.28;;
4738;SDS011;2383;48.632;10.156;2023-09-18T20:04:40;7.60;;;2.70;;
4738;SDS011;2383;48.632;10.156;2023-09-18T20:08:42;4.18;;;2.85;;
4738;SDS011;2383;48.632;10.156;2023-09-18T20:12:44;5.47;;;3.03;;
4738;SDS011;2383;48.632;10.156;2023-09-18T20:16:53;3.92;;;2.60;;
4738;SDS011;2383;48.632;10.156;2023-09-18T20:20:56;5.03;;;2.70;;
4738;SDS011;2383;48.632;10.156;2023-09-18T20:25:01;4.28;;;2.90;;
4738;SDS011;2383;48.632;10.156;2023-09-18T20:29:03;5.93;;;2.90;;
4738;SDS011;2383;48.632;10.156;2023-09-18T20:33:06;4.85;;;3.33;;
4738;SDS011;2383;48.632;10.156;2023-09-18T20:37:08;3.92;;;2.95;;
4738;SDS011;2383;48.632;10.156;2023-09-18T20:41:10;3.30;;;2.60;;
4738;SDS011;2383;48.632;10.156;2023-09-18T20:45:13;4.20;;;3.17;;
4738;SDS011;2383;48.632;10.156;2023-09-18T20:49:16;4.13;;;2.78;;
4738;SDS011;2383;48.632;10.156;2023-09-18T20:53:18;7.70;;;2.70;;
4738;SDS011;2383;48.632;10.156;2023-09-18T20:57:20;2.90;;;2.45;;
4738;SDS011;2383;48.632;10.156;2023-09-18T21:01:22;3.63;;;2.72;;
4738;SDS011;2383;48.632;10.156;2023-09-18T21:05:25;4.03;;;2.70;;
4738;SDS011;2383;48.632;10.156;2023-09-18T21:09:28;3.00;;;2.70;;
4738;SDS011;2383;48.632;10.156;2023-09-18T21:13:31;4.00;;;2.47;;
4738;SDS011;2383;48.632;10.156;2023-09-18T21:17:33;6.25;;;2.67;;
4738;SDS011;2383;48.632;10.156;2023-09-18T21:21:35;6.30;;;2.83;;
4738;SDS011;2383;48.632;10.156;2023-09-18T21:25:37;5.72;;;2.70;;
4738;SDS011;2383;48.632;10.156;2023-09-18T21:29:41;5.05;;;2.22;;
4738;SDS011;2383;48.632;10.156;2023-09-18T21:33:43;6.82;;;3.00;;
4738;SDS011;2383;48.632;10.156;2023-09-18T21:37:47;4.78;;;2.92;;
4738;SDS011;2383;48.632;10.156;2023-09-18T21:41:51;4.65;;;2.65;;
4738;SDS011;2383;48.632;10.156;2023-09-18T21:45:53;6.07;;;2.78;;
4738;SDS011;2383;48.632;10.156;2023-09-18T21:49:56;2.58;;;2.38;;
4738;SDS011;2383;48.632;10.156;2023-09-18T21:53:58;5.80;;;2.58;;
4738;SDS011;2383;48.632;10.156;2023-09-18T21:58:01;9.38;;;2.53;;
4738;SDS011;2383;48.632;10.156;2023-09-18T22:02:03;2.35;;;2.00;;
4738;SDS011;2383;48.632;10.156;2023-09-18T22:06:05;2.85;;;2.30;;
4738;SDS011;2383;48.632;10.156;2023-09-18T22:10:08;3.33;;;2.00;;
4738;SDS011;2383;48.632;10.156;2023-09-18T22:14:10;3.95;;;2.08;;
4738;SDS011;2383;48.632;10.156;2023-09-18T22:18:13;4.30;;;2.08;;
4738;SDS011;2383;48.632;10.156;2023-09-18T22:22:15;2.83;;;2.03;;
4738;SDS011;2383;48.632;10.156;2023-09-18T22:26:17;3.30;;;2.17;;
4738;SDS011;2383;48.632;10.156;2023-09-18T22:30:19;6.95;;;2.20;;
4738;SDS011;2383;48.632;10.156;2023-09-18T22:34:23;3.85;;;2.40;;
4738;SDS011;2383;48.632;10.156;2023-09-18T22:38:32;3.70;;;2.22;;
4738;SDS011;2383;48.632;10.156;2023-09-18T22:56:41;3.20;;;2.00;;
4738;SDS011;2383;48.632;10.156;2023-09-18T23:00:43;7.10;;;2.08;;
4738;SDS011;2383;48.632;10.156;2023-09-18T23:04:46;3.42;;;1.67;;
4738;SDS011;2383;48.632;10.156;2023-09-18T23:08:48;4.75;;;1.92;;
4738;SDS011;2383;48.632;10.156;2023-09-18T23:12:50;3.30;;;1.80;;
4738;SDS011;2383;48.632;10.156;2023-09-18T23:17:02;3.03;;;1.70;;
4738;SDS011;2383;48.632;10.156;2023-09-18T23:21:07;2.75;;;1.70;;
4738;SDS011;2383;48.632;10.156;2023-09-18T23:25:09;2.47;;;1.63;;
4738;SDS011;2383;48.632;10.156;2023-09-18T23:29:15;3.90;;;1.60;;
4738;SDS011;2383;48.632;10.156;2023-09-18T23:33:18;1.60;;;1.40;;
4738;SDS011;2383;48.632;10.156;2023-09-18T23:37:21;2.97;;;1.50;;
4738;SDS011;2383;48.632;10.156;2023-09-18T23:41:25;4.00;;;1.30;;
4738;SDS011;2383;48.632;10.156;2023-09-18T23:45:47;2.78;;;1.45;;
4738;SDS011;2383;48.632;10.156;2023-09-18T23:49:49;2.92;;;1.52;;
4738;SDS011;2383;48.632;10.156;2023-09-18T23:53:51;3.92;;;1.35;;
4738;SDS011;2383;48.632;10.156;2023-09-18T23:57:55;2.35;;;1.52;;
